Marion, OH

5:21 AM EDT on September 17, 2014 (GMT -0400)
OHDOT 17-Marion County Garage | Change Station
CLOSE
Current Station
Personal Weather Station
Location: Marion, OH
Elevation: 944 ft
Nearby Weather Stations

Elev 944 ft 40.60 °N, 83.14 °W | Updated 42 minutes ago

Clear
Clear
47.0 °F
Feels Like 47.0 °F
N
1.0
Wind Variable Wind from SW
Gusts 2.0 mph

Today
High -- | Low -- °F
--% Chance of Precip.
Yesterday
High -- | Low -- °F
Precip. -- in
7:15 AM 7:38 PM
Last Quarter, 37% visible
Pressure 30.09 in
Visibility 3.0 miles
Clouds Clear
Dew Point 46.0 °F
Humidity 95%
Rainfall -999.00 in
Snow Depth Not available.
UV 0 out of 12
Pollen 3.60 out of 12
Air Quality Not available.
Flu Activity Not available.
METAR KMNN 170853Z AUTO 00000KT 3SM BR CLR 06/05 A3008 RMK AO2 SLP188 T00610050 56004 TSNO

More Conditions Fewer Conditions

Pressure 30.09 in
Visibility 3.0 miles
Clouds Clear
Dew Point 46.0 °F
Humidity 95%
Rainfall -999.00 in
Snow Depth Not available.
UV 0 out of 12
Pollen 3.60 out of 12
Air Quality Not available.
Flu Activity Not available.
METAR KMNN 170853Z AUTO 00000KT 3SM BR CLR 06/05 A3008 RMK AO2 SLP188 T00610050 56004 TSNO

More Conditions Fewer Conditions

10-Day Weather Forecast

Almanac

Astronomy

Sep. 17, 2014 Rise Set
Actual Time 7:15 AM EDT 7:38 PM EDT
Civil Twilight 6:47 AM EDT 8:05 PM EDT
Nautical Twilight 6:15 AM EDT 8:37 PM EDT
Astronomical Twilight 5:42 AM EDT 9:10 PM EDT
Moon 1:13 AM EDT 3:48 PM EDT
Length of Visible Light 13h 17m
Length of Day
12h 22m
Tomorrow will be 2m 40s shorter.
Last Quarter, 37% of the Moon is Illuminated
Today
Last Quarter
Sep 24
New
Oct 1
First Quarter
Oct 8
Full
Oct 15
Last Quarter

Today's Extremes

State Highs State Lows

Community

WunderPhotos

Upload Photos

1,753,991 photos uploaded!

Nearby

Air Quality

  Air Quality AQ Index Pollutant
Yesterday Good
PM2.5
Wednesday Good
PM2.5
Wednesday Good
OZONE
Thursday Good
OZONE
Thursday Good
PM2.5
Friday Good
OZONE
Friday Good
PM2.5
Saturday Moderate
OZONE
Saturday Moderate
PM2.5
Sunday Good
OZONE
Sunday Good
PM2.5

Snow Depth

Station Depth Elevation
No new snow has been reported.

Earthquake Activity

City Distance Mag. Time & Date
No recent earthquake activity has been reported nearby.
Minimum magnitude displayed is 2.5.

Coastal Water Temperatures

Place Temperature
No Stations Reporting

Nearby Weather Stations